Time;durP1;ratioP1;P1;durP2;ratioP2;P2;SDS_P1;SDS_P2;PMS_P1;PMS_P2;Temp;Humidity;BMP_temperature;BMP_pressure;BME280_temperature;BME280_humidity;BME280_pressure;Samples;Min_cycle;Max_cycle;Signal;HPM_P1;HPM_P2
2024/01/14 00:02:07;;;;;;;;;74.25;54.00;;;;;1.39;100.00;101922.53;5082082;27;45391;-74
2024/01/14 00:04:32;;;;;;;;;71.50;55.50;;;;;1.32;100.00;101910.31;5081955;27;45241;-74
2024/01/14 00:06:57;;;;;;;;;70.25;50.50;;;;;1.34;100.00;101901.66;5101272;27;45304;-74
2024/01/14 00:09:23;;;;;;;;;69.75;51.75;;;;;1.41;100.00;101913.88;5103190;27;45515;-74
2024/01/14 00:11:48;;;;;;;;;73.50;54.00;;;;;1.39;100.00;101904.31;5089779;27;47417;-74
2024/01/14 00:14:14;;;;;;;;;71.25;48.00;;;;;1.38;100.00;101900.81;5086411;27;45387;-74
2024/01/14 00:16:39;;;;;;;;;70.00;50.00;;;;;1.43;100.00;101908.69;5091875;27;45499;-74
2024/01/14 00:19:05;;;;;;;;;65.25;52.25;;;;;1.42;100.00;101894.78;5092758;27;45551;-74
2024/01/14 00:21:31;;;;;;;;;64.25;46.25;;;;;1.35;100.00;101877.34;5084639;27;46259;-74
2024/01/14 00:23:56;;;;;;;;;60.25;48.25;;;;;1.39;100.00;101884.31;5095728;27;45235;-74
2024/01/14 00:26:24;;;;;;;;;67.00;51.25;;;;;1.22;100.00;101840.75;5091534;27;45364;-74
2024/01/14 00:28:52;;;;;;;;;69.25;48.00;;;;;1.15;100.00;101823.31;5097376;27;45388;-74
2024/01/14 00:31:17;;;;;;;;;59.50;44.50;;;;;1.42;100.00;101865.22;5110371;27;48425;-74
2024/01/14 00:33:42;;;;;;;;;65.00;47.25;;;;;1.42;99.44;101866.09;5099330;27;45261;-74
2024/01/14 00:36:08;;;;;;;;;62.25;50.00;;;;;1.37;99.64;101862.59;5101326;27;45941;-74
2024/01/14 00:38:33;;;;;;;;;65.50;50.00;;;;;1.08;99.73;101812.00;5098604;27;45528;-74
2024/01/14 00:40:59;;;;;;;;;68.25;52.00;;;;;1.34;99.54;101853.91;5092586;27;46249;-74
2024/01/14 00:43:24;;;;;;;;;74.25;57.00;;;;;1.32;99.74;101845.16;5095636;27;45678;-74
2024/01/14 00:45:50;;;;;;;;;68.50;51.25;;;;;1.33;99.33;101859.97;5085940;27;45420;-74
2024/01/14 00:48:15;;;;;;;;;63.50;48.75;;;;;1.26;98.08;101830.38;5096824;27;45361;-74
2024/01/14 00:50:41;;;;;;;;;58.00;42.00;;;;;1.32;98.14;101842.56;5094904;27;46046;-74
2024/01/14 00:53:06;;;;;;;;;77.00;50.75;;;;;1.30;98.82;101837.38;5095735;27;45296;-74
2024/01/14 00:55:32;;;;;;;;;61.50;44.50;;;;;1.25;98.85;101830.34;5100838;27;45858;-74
2024/01/14 00:57:57;;;;;;;;;67.00;51.00;;;;;1.21;98.68;101820.78;5097970;27;45690;-74
2024/01/14 01:00:24;;;;;;;;;64.00;49.00;;;;;1.12;98.26;101808.56;5096986;27;46371;-74
2024/01/14 01:02:49;;;;;;;;;60.25;48.50;;;;;1.17;98.68;101816.41;5091216;27;45245;-74
2024/01/14 01:05:15;;;;;;;;;63.75;51.00;;;;;1.16;98.91;101823.34;5100308;27;45294;-74
2024/01/14 01:07:40;;;;;;;;;66.00;47.25;;;;;1.21;99.84;101819.03;5097501;27;45245;-74
2024/01/14 01:10:06;;;;;;;;;64.50;48.00;;;;;1.22;100.00;101817.31;5095298;27;48086;-74
2024/01/14 01:12:31;;;;;;;;;54.75;45.75;;;;;1.19;98.78;101812.06;5096706;27;45267;-74
2024/01/14 01:14:57;;;;;;;;;62.50;50.75;;;;;1.01;98.54;101795.44;5099102;27;45452;-74
2024/01/14 01:17:22;;;;;;;;;71.00;52.00;;;;;1.14;99.50;101809.47;5087586;27;45264;-74
2024/01/14 01:19:48;;;;;;;;;65.00;48.50;;;;;1.13;99.14;101828.53;5107298;27;48370;-74
2024/01/14 01:22:13;;;;;;;;;66.00;49.50;;;;;1.11;99.47;101824.19;5081206;27;45439;-74
2024/01/14 01:24:38;;;;;;;;;68.50;49.75;;;;;1.07;99.70;101818.06;5089240;27;45499;-74
2024/01/14 01:27:04;;;;;;;;;72.25;50.75;;;;;1.08;100.00;101827.63;5086458;27;45331;-74
2024/01/14 01:29:30;;;;;;;;;64.00;52.50;;;;;1.04;100.00;101818.06;5085744;27;48003;-74
2024/01/14 01:31:55;;;;;;;;;66.50;49.75;;;;;1.00;100.00;101806.75;5090176;27;45302;-74
2024/01/14 01:34:21;;;;;;;;;60.00;47.75;;;;;1.07;100.00;101823.28;5093916;27;45289;-74
2024/01/14 01:36:46;;;;;;;;;56.50;46.75;;;;;0.90;100.00;101778.00;5080430;27;45555;-74
2024/01/14 01:39:14;;;;;;;;;66.25;51.25;;;;;1.09;100.00;101816.34;5094705;27;46446;-74
2024/01/14 01:41:39;;;;;;;;;53.50;38.25;;;;;1.09;99.84;101811.13;5102264;27;45468;-74
2024/01/14 01:44:05;;;;;;;;;64.25;49.50;;;;;0.90;97.58;101784.09;5095375;27;45364;-74
2024/01/14 01:46:30;;;;;;;;;64.50;48.25;;;;;0.85;99.80;101774.50;5090126;27;45511;-74
2024/01/14 01:48:56;;;;;;;;;58.25;45.50;;;;;1.05;98.64;101818.06;5103142;27;48163;-74
2024/01/14 01:51:22;;;;;;;;;60.00;45.25;;;;;1.07;98.92;101809.38;5095124;27;45325;-74
2024/01/14 01:53:48;;;;;;;;;60.00;45.50;;;;;0.99;99.11;101788.47;5088724;27;45351;-74
2024/01/14 01:56:14;;;;;;;;;65.25;46.50;;;;;1.04;97.66;101794.63;5091333;27;45561;-74
2024/01/14 01:58:40;;;;;;;;;64.25;50.00;;;;;0.95;99.30;101769.34;5095171;27;46478;-74
2024/01/14 02:01:07;;;;;;;;;68.00;49.00;;;;;1.04;100.00;101781.59;5080402;27;45315;-74
2024/01/14 02:03:33;;;;;;;;;64.00;49.50;;;;;1.04;100.00;101781.59;5080406;27;45565;-74
2024/01/14 02:05:59;;;;;;;;;72.25;52.50;;;;;1.04;100.00;101773.78;5084629;27;45527;-74
2024/01/14 02:08:25;;;;;;;;;63.50;46.50;;;;;0.85;99.71;101749.31;5097130;27;46857;-74
2024/01/14 02:10:51;;;;;;;;;63.50;47.00;;;;;1.10;99.26;101770.34;5091136;27;45441;-74
2024/01/14 02:13:17;;;;;;;;;69.00;47.75;;;;;1.11;99.25;101778.19;5082590;27;45401;-74
2024/01/14 02:15:42;;;;;;;;;66.50;49.50;;;;;1.05;99.28;101773.78;5090128;27;45319;-74
2024/01/14 02:18:07;;;;;;;;;52.25;42.00;;;;;1.00;99.82;101761.59;5086457;27;46623;-74
2024/01/14 02:20:33;;;;;;;;;60.75;44.25;;;;;1.02;100.00;101762.47;5095638;27;45622;-74
2024/01/14 02:23:02;;;;;;;;;59.50;47.50;;;;;1.09;99.72;101760.78;5091873;27;45385;-74
2024/01/14 02:25:28;;;;;;;;;65.00;45.75;;;;;1.04;99.14;101766.84;5088105;27;45420;-74
2024/01/14 02:27:54;;;;;;;;;74.00;51.25;;;;;0.99;100.00;101739.00;5093900;27;47492;-74
2024/01/14 02:30:19;;;;;;;;;69.25;47.25;;;;;1.01;100.00;101745.09;5083213;27;45443;-74
2024/01/14 02:32:48;;;;;;;;;66.25;48.00;;;;;1.07;100.00;101759.91;5090600;27;45450;-74
2024/01/14 02:35:13;;;;;;;;;61.75;47.75;;;;;0.99;100.00;101739.88;5102100;27;45273;-74
2024/01/14 02:37:43;;;;;;;;;60.50;47.50;;;;;1.04;100.00;101747.72;5088213;27;45740;-74
2024/01/14 02:40:10;;;;;;;;;63.25;49.25;;;;;0.85;100.00;101718.06;5080023;27;45319;-74
2024/01/14 02:42:35;;;;;;;;;60.25;39.75;;;;;0.98;100.00;101724.25;5089183;27;45336;-74
2024/01/14 02:45:01;;;;;;;;;62.75;44.50;;;;;1.07;100.00;101726.91;5082539;27;45515;-74
2024/01/14 02:47:26;;;;;;;;;54.00;43.50;;;;;1.04;100.00;101719.97;5091316;27;45256;-74
2024/01/14 02:49:51;;;;;;;;;61.75;45.00;;;;;0.84;100.00;101679.91;5101777;27;45203;-74
2024/01/14 02:52:17;;;;;;;;;61.50;40.25;;;;;1.10;100.00;101720.84;5084616;27;45661;-74
2024/01/14 02:54:42;;;;;;;;;54.50;42.50;;;;;1.13;100.00;101729.56;5097243;27;45251;-74
2024/01/14 02:57:08;;;;;;;;;64.75;45.25;;;;;0.99;99.45;101715.56;5091923;27;45405;-74
2024/01/14 02:59:35;;;;;;;;;51.75;41.50;;;;;1.03;100.00;101713.00;5085396;27;45515;-74
2024/01/14 03:02:01;;;;;;;;;47.25;38.00;;;;;0.97;99.31;101699.06;5094389;27;45501;-74
2024/01/14 03:04:27;;;;;;;;;61.00;45.00;;;;;1.01;100.00;101712.09;5087294;27;45426;-74
2024/01/14 03:06:52;;;;;;;;;62.25;49.25;;;;;0.96;100.00;101695.59;5098581;27;47355;-74
2024/01/14 03:09:18;;;;;;;;;58.50;43.75;;;;;0.96;100.00;101697.31;5084296;27;45386;-74
2024/01/14 03:11:43;;;;;;;;;56.75;47.50;;;;;0.95;100.00;101695.56;5090782;27;45410;-74
2024/01/14 03:14:08;;;;;;;;;54.25;43.25;;;;;0.96;100.00;101699.91;5103460;27;45752;-74
2024/01/14 03:16:34;;;;;;;;;68.75;48.00;;;;;0.93;100.00;101702.50;5085581;27;47536;-74
2024/01/14 03:18:59;;;;;;;;;49.25;41.75;;;;;0.97;100.00;101712.09;5094896;27;45320;-74
2024/01/14 03:21:24;;;;;;;;;57.75;45.00;;;;;0.90;100.00;101700.75;5088215;27;45363;-74
2024/01/14 03:23:50;;;;;;;;;57.50;45.50;;;;;0.95;100.00;101708.59;5098437;27;45428;-74
2024/01/14 03:26:15;;;;;;;;;62.75;43.50;;;;;0.88;100.00;101694.66;5087250;27;45461;-74
2024/01/14 03:28:41;;;;;;;;;61.25;47.00;;;;;0.88;100.00;101701.63;5081710;27;45416;-74
2024/01/14 03:31:08;;;;;;;;;68.25;47.00;;;;;0.55;100.00;101655.41;5088261;27;45847;-74
2024/01/14 03:33:34;;;;;;;;;68.50;47.00;;;;;0.83;100.00;101701.56;5089190;27;45366;-74
2024/01/14 03:36:02;;;;;;;;;61.00;44.75;;;;;0.73;100.00;101681.53;5089425;27;45360;-74
2024/01/14 03:38:28;;;;;;;;;45.75;40.50;;;;;0.73;100.00;101685.88;5098210;27;45233;-74
2024/01/14 03:40:53;;;;;;;;;55.00;43.50;;;;;0.67;100.00;101672.81;5088597;27;45356;-74
2024/01/14 03:43:18;;;;;;;;;66.25;48.00;;;;;0.72;100.00;101673.75;5086628;27;45800;-74
2024/01/14 03:45:44;;;;;;;;;64.25;47.50;;;;;0.51;100.00;101644.09;5094147;27;46411;-74
2024/01/14 03:48:09;;;;;;;;;56.75;45.25;;;;;0.63;100.00;101684.06;5090033;27;45412;-74
2024/01/14 03:50:34;;;;;;;;;53.25;41.50;;;;;0.63;100.00;101666.72;5088524;27;45420;-74
2024/01/14 03:53:00;;;;;;;;;65.25;47.50;;;;;0.61;100.00;101670.19;5085430;27;45414;-74
2024/01/14 03:55:25;;;;;;;;;61.50;46.00;;;;;0.56;100.00;101662.31;5093841;27;45451;-74
2024/01/14 03:57:50;;;;;;;;;59.25;45.75;;;;;0.51;100.00;101664.03;5101366;27;45235;-74
2024/01/14 04:00:16;;;;;;;;;50.25;40.00;;;;;0.32;100.00;101625.72;5085389;27;45742;-74
2024/01/14 04:02:41;;;;;;;;;62.00;44.50;;;;;0.50;100.00;101651.88;5084570;27;45369;-74
2024/01/14 04:05:07;;;;;;;;;60.00;47.00;;;;;0.51;100.00;101636.28;5086605;27;45229;-74
2024/01/14 04:07:32;;;;;;;;;56.00;32.00;;;;;0.53;100.00;101649.28;5103087;27;45269;-74
2024/01/14 04:09:58;;;;;;;;;58.25;42.00;;;;;0.50;100.00;101637.13;5089011;27;45238;-74
2024/01/14 04:12:27;;;;;;;;;62.25;40.25;;;;;0.55;100.00;101638.91;5094141;27;45436;-74
2024/01/14 04:14:52;;;;;;;;;63.50;46.00;;;;;0.58;100.00;101644.13;5097412;27;47184;-74
2024/01/14 04:17:18;;;;;;;;;56.25;45.75;;;;;0.61;100.00;101638.94;5089182;27;45475;-74
2024/01/14 04:19:43;;;;;;;;;60.00;44.25;;;;;0.55;100.00;101628.50;5100556;27;45887;-74
2024/01/14 04:22:08;;;;;;;;;53.75;41.75;;;;;0.53;100.00;101616.34;5097171;27;45403;-74
2024/01/14 04:24:34;;;;;;;;;66.25;47.50;;;;;0.52;100.00;101616.34;5099227;27;45303;-74
2024/01/14 04:26:59;;;;;;;;;50.25;42.50;;;;;0.65;100.00;101635.50;5093305;27;45555;-74
2024/01/14 04:29:24;;;;;;;;;68.25;47.00;;;;;0.59;100.00;101625.06;5089682;27;45307;-74
2024/01/14 04:31:50;;;;;;;;;64.50;47.75;;;;;0.53;100.00;101631.94;5094788;27;45462;-74
2024/01/14 04:34:15;;;;;;;;;53.75;41.25;;;;;0.45;100.00;101625.84;5099683;27;45693;-74
2024/01/14 04:36:40;;;;;;;;;56.75;44.25;;;;;0.20;100.00;101589.19;5097299;27;45413;-74
2024/01/14 04:39:06;;;;;;;;;63.00;45.00;;;;;0.31;100.00;101621.38;5090575;27;45356;-74
2024/01/14 04:41:31;;;;;;;;;50.00;40.25;;;;;0.36;100.00;101633.56;5092196;27;45454;-74
2024/01/14 04:43:56;;;;;;;;;54.75;44.00;;;;;0.37;100.00;101635.31;5092285;27;45575;-74
2024/01/14 04:46:22;;;;;;;;;70.00;43.25;;;;;0.13;100.00;101580.47;5081808;27;45329;-74
2024/01/14 04:48:47;;;;;;;;;66.50;46.75;;;;;0.37;100.00;101611.00;5081885;27;45234;-74
2024/01/14 04:51:13;;;;;;;;;63.75;44.25;;;;;0.34;100.00;101608.41;5096692;27;45369;-74
2024/01/14 04:53:38;;;;;;;;;60.00;43.50;;;;;0.37;100.00;101624.03;5092081;27;45986;-74
2024/01/14 04:56:06;;;;;;;;;53.25;43.25;;;;;0.28;100.00;101609.22;5094652;27;45366;-74
2024/01/14 04:58:32;;;;;;;;;57.00;42.50;;;;;0.33;100.00;101620.53;5079977;27;45525;-74
2024/01/14 05:00:57;;;;;;;;;60.50;44.25;;;;;0.31;100.00;101619.66;5089427;27;45334;-74
2024/01/14 05:03:22;;;;;;;;;64.50;46.75;;;;;0.31;100.00;101608.38;5098014;27;46926;-74
2024/01/14 05:05:48;;;;;;;;;63.00;47.00;;;;;0.33;100.00;101607.53;5083120;27;45357;-74
2024/01/14 05:08:13;;;;;;;;;39.50;34.00;;;;;0.42;100.00;101620.63;5096764;27;45450;-74
2024/01/14 05:10:38;;;;;;;;;65.25;47.50;;;;;0.42;100.00;101612.81;5094915;27;45305;-73
2024/01/14 05:13:04;;;;;;;;;47.00;42.25;;;;;0.39;100.00;101599.75;5084785;27;46359;-74
2024/01/14 05:15:29;;;;;;;;;53.25;44.00;;;;;0.28;100.00;101595.34;5090127;27;45271;-74
2024/01/14 05:17:54;;;;;;;;;55.25;44.00;;;;;0.05;100.00;101563.97;5093441;27;45359;-74
2024/01/14 05:20:21;;;;;;;;;63.75;45.25;;;;;0.26;100.00;101603.13;5094952;27;45379;-74
2024/01/14 05:22:46;;;;;;;;;52.25;44.50;;;;;0.32;100.00;101603.19;5092672;27;48033;-69
2024/01/14 05:25:12;;;;;;;;;56.50;44.75;;;;;0.40;100.00;101613.63;5094645;27;45209;-69
2024/01/14 05:27:37;;;;;;;;;54.00;40.75;;;;;0.36;100.00;101602.34;5077854;27;45270;-69
2024/01/14 05:30:03;;;;;;;;;48.50;42.25;;;;;0.39;100.00;101599.75;5088711;27;45419;-69
2024/01/14 05:32:29;;;;;;;;;69.25;47.25;;;;;0.47;100.00;101615.44;5093173;27;46233;-69
2024/01/14 05:34:55;;;;;;;;;61.25;45.50;;;;;0.45;100.00;101607.63;5090671;27;45254;-69
2024/01/14 05:37:21;;;;;;;;;66.00;48.25;;;;;0.40;100.00;101596.31;5112510;27;45648;-69
2024/01/14 05:39:46;;;;;;;;;61.75;44.00;;;;;0.40;100.00;101595.44;5094964;27;45428;-69
2024/01/14 05:42:12;;;;;;;;;49.75;40.75;;;;;0.35;100.00;101592.81;5088828;27;45628;-69
2024/01/14 05:44:37;;;;;;;;;63.00;48.00;;;;;0.42;100.00;101609.34;5094326;27;45304;-69
2024/01/14 05:47:02;;;;;;;;;43.25;39.50;;;;;-0.05;100.00;101520.56;5094881;27;45262;-69
2024/01/14 05:49:28;;;;;;;;;57.50;42.50;;;;;0.45;100.00;101596.34;5110725;27;45363;-69
2024/01/14 05:51:53;;;;;;;;;68.25;51.00;;;;;0.43;100.00;101591.13;5095475;27;45342;-69
2024/01/14 05:54:19;;;;;;;;;60.75;48.25;;;;;0.45;100.00;101598.94;5086775;27;45309;-69
2024/01/14 05:56:44;;;;;;;;;59.50;45.75;;;;;0.53;100.00;101605.06;5096440;27;45329;-69
2024/01/14 05:59:10;;;;;;;;;58.25;46.25;;;;;0.50;100.00;101608.50;5093803;27;45377;-69
2024/01/14 06:01:35;;;;;;;;;60.50;45.00;;;;;0.24;100.00;101554.56;5084653;27;47544;-69
2024/01/14 06:04:01;;;;;;;;;48.75;41.00;;;;;0.47;100.00;101594.59;5084854;27;45413;-70
2024/01/14 06:06:26;;;;;;;;;55.00;44.75;;;;;0.29;100.00;101589.28;5092627;27;45172;-70
2024/01/14 06:08:52;;;;;;;;;50.75;36.75;;;;;0.29;100.00;101610.97;5079879;27;45480;-69
2024/01/14 06:11:18;;;;;;;;;65.50;48.00;;;;;0.24;100.00;101596.19;5094608;27;46075;-69
2024/01/14 06:13:43;;;;;;;;;51.50;43.00;;;;;0.17;100.00;101582.25;5093060;27;45445;-69
2024/01/14 06:16:09;;;;;;;;;62.00;43.00;;;;;0.03;100.00;101568.31;5088279;27;45238;-69
2024/01/14 06:18:34;;;;;;;;;62.75;43.50;;;;;0.26;100.00;101591.88;5079752;27;45449;-69
2024/01/14 06:21:01;;;;;;;;;49.75;36.25;;;;;0.28;100.00;101592.75;5085880;27;46282;-70
2024/01/14 06:23:27;;;;;;;;;58.50;44.50;;;;;0.31;100.00;101585.84;5095361;27;45452;-70
2024/01/14 06:25:52;;;;;;;;;54.75;44.25;;;;;0.31;100.00;101597.97;5087455;27;45328;-70
2024/01/14 06:28:18;;;;;;;;;62.75;44.50;;;;;0.19;100.00;101575.34;5094853;27;45311;-69
2024/01/14 06:30:43;;;;;;;;;57.75;46.25;;;;;0.28;100.00;101591.03;5097345;27;47055;-69
2024/01/14 06:33:09;;;;;;;;;63.50;43.25;;;;;0.25;100.00;101585.81;5095142;27;45375;-69
2024/01/14 06:35:34;;;;;;;;;56.50;44.75;;;;;0.32;100.00;101584.13;5086583;27;45388;-69
2024/01/14 06:38:00;;;;;;;;;52.75;43.50;;;;;0.21;100.00;101565.81;5094570;27;45292;-69
2024/01/14 06:40:25;;;;;;;;;64.25;47.00;;;;;0.22;100.00;101572.78;5088975;27;47981;-69
2024/01/14 06:42:51;;;;;;;;;64.00;45.25;;;;;0.32;100.00;101584.13;5085736;27;45394;-69
2024/01/14 06:45:16;;;;;;;;;68.50;48.50;;;;;0.29;100.00;101563.28;5098327;27;45928;-69
2024/01/14 06:47:41;;;;;;;;;64.25;41.25;;;;;0.32;100.00;101573.72;5096178;27;45200;-69
2024/01/14 06:50:08;;;;;;;;;54.75;43.75;;;;;-0.02;100.00;101507.56;5090071;27;50884;-69
2024/01/14 06:52:33;;;;;;;;;57.75;44.75;;;;;0.18;100.00;101536.31;5095673;27;45776;-69
2024/01/14 06:54:59;;;;;;;;;64.00;46.75;;;;;0.42;100.00;101579.00;5093115;27;45670;-69
2024/01/14 06:57:24;;;;;;;;;63.50;47.50;;;;;0.42;100.00;101576.38;5089271;27;45614;-69
2024/01/14 06:59:50;;;;;;;;;65.75;46.50;;;;;0.39;100.00;101567.69;5094579;27;48247;-69
2024/01/14 07:02:15;;;;;;;;;62.25;47.00;;;;;0.44;100.00;101578.97;5094714;27;45513;-70
2024/01/14 07:04:41;;;;;;;;;61.75;47.25;;;;;0.47;100.00;101584.19;5088892;27;45431;-69
2024/01/14 07:07:08;;;;;;;;;59.25;44.25;;;;;0.55;100.00;101592.06;5093786;27;45609;-69
2024/01/14 07:09:34;;;;;;;;;59.25;46.00;;;;;0.51;100.00;101571.22;5102457;27;47245;-69
2024/01/14 07:12:00;;;;;;;;;65.50;49.75;;;;;0.48;100.00;101563.41;5087969;27;45486;-69
2024/01/14 07:14:26;;;;;;;;;61.50;44.75;;;;;0.46;100.00;101552.09;5099003;27;45385;-69
2024/01/14 07:16:51;;;;;;;;;60.00;41.50;;;;;0.52;100.00;101559.94;5094960;27;45368;-69
2024/01/14 07:19:17;;;;;;;;;63.75;51.00;;;;;0.43;99.69;101546.88;5092840;27;45383;-69
2024/01/14 07:21:42;;;;;;;;;67.75;47.00;;;;;0.46;99.50;101557.31;5087167;27;45258;-69
2024/01/14 07:24:07;;;;;;;;;52.25;39.75;;;;;0.47;100.00;101564.25;5099104;27;45204;-69
2024/01/14 07:26:33;;;;;;;;;62.75;45.50;;;;;0.48;100.00;101566.00;5114859;27;45275;-69
2024/01/14 07:28:58;;;;;;;;;58.75;45.75;;;;;0.43;100.00;101549.47;5095735;27;45420;-70
2024/01/14 07:31:30;;;;;;;;;57.50;46.50;;;;;0.43;100.00;101546.88;5096412;27;45294;-69
2024/01/14 07:33:55;;;;;;;;;59.75;46.00;;;;;0.57;100.00;101561.69;5092361;27;45420;-69
2024/01/14 07:36:21;;;;;;;;;56.00;42.50;;;;;0.50;100.00;101545.19;5099415;27;45480;-69
2024/01/14 07:38:46;;;;;;;;;66.25;45.00;;;;;0.57;100.00;101559.97;5090883;27;45458;-69
2024/01/14 07:41:15;;;;;;;;;71.25;47.25;;;;;0.57;100.00;101556.50;5086569;27;45333;-69
2024/01/14 07:43:41;;;;;;;;;49.75;43.25;;;;;0.60;100.00;101567.81;5094849;27;45268;-69
2024/01/14 07:46:07;;;;;;;;;64.00;47.50;;;;;0.41;99.63;101543.41;5103047;27;45423;-69
2024/01/14 07:48:33;;;;;;;;;55.75;44.50;;;;;0.55;100.00;101563.44;5083853;27;45542;-69
2024/01/14 07:51:00;;;;;;;;;62.75;45.75;;;;;0.58;100.00;101563.44;5086440;27;45305;-69
2024/01/14 07:53:25;;;;;;;;;68.00;48.75;;;;;0.53;100.00;101558.22;5095449;27;45333;-69
2024/01/14 07:55:51;;;;;;;;;60.75;44.00;;;;;0.33;100.00;101526.00;5083243;27;45411;-69
2024/01/14 07:58:17;;;;;;;;;57.50;44.25;;;;;0.58;100.00;101563.44;5085963;27;45492;-69
2024/01/14 08:00:43;;;;;;;;;62.25;50.25;;;;;0.56;100.00;101575.59;5098017;27;45391;-69
2024/01/14 08:03:09;;;;;;;;;60.75;48.00;;;;;0.62;100.00;101573.03;5082895;27;45364;-69
2024/01/14 08:05:35;;;;;;;;;52.75;42.75;;;;;0.60;100.00;101566.94;5083530;27;45209;-70
2024/01/14 08:08:01;;;;;;;;;62.00;43.50;;;;;0.54;99.00;101570.38;5082290;27;45405;-69
2024/01/14 08:10:27;;;;;;;;;63.25;45.75;;;;;0.45;99.38;101586.81;5083425;27;45333;-69
2024/01/14 08:12:52;;;;;;;;;61.50;50.50;;;;;0.33;100.00;101567.63;5082481;27;45312;-69
2024/01/14 08:15:18;;;;;;;;;62.25;48.00;;;;;0.44;100.00;101584.19;5083522;27;45393;-70
2024/01/14 08:17:43;;;;;;;;;55.00;46.00;;;;;0.33;100.00;101565.91;5089146;27;45354;-69
2024/01/14 08:20:10;;;;;;;;;55.75;45.00;;;;;0.33;100.00;101559.81;5094347;27;45289;-69
2024/01/14 08:22:39;;;;;;;;;65.50;48.50;;;;;0.39;100.00;101563.31;5083318;27;45239;-70
2024/01/14 08:25:07;;;;;;;;;60.50;48.50;;;;;0.38;100.00;101566.81;5089224;27;45425;-69
2024/01/14 08:27:33;;;;;;;;;72.25;47.25;;;;;0.42;100.00;101576.38;5087277;27;46655;-69
2024/01/14 08:29:58;;;;;;;;;61.50;49.25;;;;;0.36;98.89;101570.28;5087284;27;45316;-70
2024/01/14 08:32:24;;;;;;;;;66.00;48.25;;;;;0.33;99.53;101576.28;5082942;27;45348;-69
2024/01/14 08:34:49;;;;;;;;;67.75;47.75;;;;;0.36;100.00;101581.53;5097701;27;45515;-69
2024/01/14 08:37:14;;;;;;;;;72.75;47.75;;;;;0.25;100.00;101558.91;5084807;27;46259;-69
2024/01/14 08:39:40;;;;;;;;;70.00;47.75;;;;;0.43;100.00;101578.09;5082902;27;45443;-69
2024/01/14 08:42:05;;;;;;;;;76.75;51.75;;;;;0.41;100.00;101568.56;5093849;27;45368;-70
2024/01/14 08:44:31;;;;;;;;;68.00;48.00;;;;;0.17;100.00;101527.63;5097396;27;45378;-69
2024/01/14 08:46:56;;;;;;;;;46.00;32.75;;;;;0.37;100.00;101570.25;5097600;27;47053;-69
2024/01/14 08:49:24;;;;;;;;;53.25;41.75;;;;;0.40;100.00;101570.28;5083210;27;45277;-69
2024/01/14 08:51:49;;;;;;;;;56.50;43.50;;;;;0.13;99.75;101518.06;5085044;27;45356;-69
2024/01/14 08:54:15;;;;;;;;;55.00;45.25;;;;;0.48;100.00;101567.75;5087191;27;45571;-69
2024/01/14 08:56:40;;;;;;;;;68.00;48.50;;;;;0.47;100.00;101563.38;5091803;27;45270;-69
2024/01/14 08:59:05;;;;;;;;;70.75;52.00;;;;;0.42;100.00;101555.56;5091780;27;45257;-69
2024/01/14 09:01:31;;;;;;;;;62.50;47.00;;;;;0.48;99.50;101566.00;5092441;27;45317;-69
2024/01/14 09:03:56;;;;;;;;;69.25;52.75;;;;;0.45;100.00;101555.59;5091357;27;45214;-69
2024/01/14 09:06:22;;;;;;;;;63.25;44.25;;;;;0.50;100.00;101561.66;5091713;27;45992;-69
2024/01/14 09:08:47;;;;;;;;;60.25;49.00;;;;;0.39;97.81;101537.31;5088369;27;45621;-69
2024/01/14 09:11:13;;;;;;;;;62.00;48.00;;;;;0.28;99.03;101535.53;5090460;27;45325;-69
2024/01/14 09:13:38;;;;;;;;;67.25;52.25;;;;;0.37;100.00;101531.25;5088379;27;45432;-69
2024/01/14 09:16:05;;;;;;;;;62.00;44.75;;;;;0.45;99.28;101531.28;5093306;27;45376;-70
2024/01/14 09:18:31;;;;;;;;;55.50;41.00;;;;;0.45;99.13;101539.09;5088970;27;45380;-69
2024/01/14 09:20:56;;;;;;;;;67.25;48.50;;;;;0.50;100.00;101524.38;5106829;27;45386;-69
2024/01/14 09:23:21;;;;;;;;;68.50;50.00;;;;;0.47;99.73;101513.94;5090771;27;45475;-69
2024/01/14 09:25:46;;;;;;;;;63.50;43.00;;;;;0.57;100.00;101540.88;5085672;27;47240;-70
2024/01/14 09:28:12;;;;;;;;;65.75;48.25;;;;;0.61;99.61;101530.50;5087606;27;45685;-69
2024/01/14 09:30:38;;;;;;;;;62.50;47.50;;;;;0.58;nan;101521.81;5085845;27;45275;-69
2024/01/14 09:33:03;;;;;;;;;67.50;49.25;;;;;0.56;98.92;101513.16;5091225;27;45439;-67
2024/01/14 09:35:29;;;;;;;;;63.00;49.00;;;;;0.36;98.23;101487.88;5086978;27;46428;-67
2024/01/14 09:37:54;;;;;;;;;68.25;50.75;;;;;0.61;98.01;101521.81;5087878;27;45396;-67
2024/01/14 09:40:20;;;;;;;;;53.75;40.25;;;;;0.68;96.78;101526.19;5085402;27;45416;-67
2024/01/14 09:42:50;;;;;;;;;62.75;47.50;;;;;0.56;97.10;101510.53;5088999;27;45415;-67
2024/01/14 09:45:16;;;;;;;;;57.75;45.00;;;;;0.69;98.52;101523.59;5088546;27;46348;-67
2024/01/14 09:47:42;;;;;;;;;58.25;43.00;;;;;0.72;97.23;101514.94;5092437;27;45696;-67
2024/01/14 09:50:10;;;;;;;;;65.25;48.25;;;;;0.70;96.13;101520.13;5089957;27;45348;-67
2024/01/14 09:52:39;;;;;;;;;69.75;50.00;;;;;0.75;97.64;101522.78;5092823;27;45257;-67
2024/01/14 09:55:05;;;;;;;;;61.00;44.75;;;;;0.60;96.78;101492.31;5085901;27;46142;-67
2024/01/14 09:57:34;;;;;;;;;69.50;48.75;;;;;0.75;96.91;101500.22;5099751;27;45370;-67
2024/01/14 10:00:04;;;;;;;;;68.25;48.00;;;;;0.82;95.26;101508.91;5092016;27;45243;-67
2024/01/14 10:02:32;;;;;;;;;60.25;47.00;;;;;0.90;98.07;101517.63;5098824;27;45666;-67
2024/01/14 10:04:58;;;;;;;;;41.00;20.75;;;;;0.90;96.25;101508.06;5099225;27;45588;-67
2024/01/14 10:07:25;;;;;;;;;69.50;51.25;;;;;0.94;94.97;101520.25;5089113;27;45320;-69
2024/01/14 10:09:52;;;;;;;;;67.50;49.75;;;;;0.79;94.72;101481.13;5093106;27;45247;-69
2024/01/14 10:12:18;;;;;;;;;51.00;40.50;;;;;0.99;93.89;101515.91;5079022;27;45501;-68
2024/01/14 10:14:44;;;;;;;;;64.50;45.50;;;;;0.98;94.14;101516.75;5078481;27;45410;-68
2024/01/14 10:17:13;;;;;;;;;64.00;51.50;;;;;0.88;95.04;101496.75;5079074;27;45370;-68
2024/01/14 10:19:39;;;;;;;;;60.00;44.00;;;;;0.92;93.28;101511.53;5091288;27;45385;-68
2024/01/14 10:22:04;;;;;;;;;69.00;48.75;;;;;0.91;94.12;101511.53;5077926;27;45528;-68
2024/01/14 10:24:30;;;;;;;;;66.75;51.00;;;;;0.78;94.31;101489.81;5088300;27;45595;-68
2024/01/14 10:26:56;;;;;;;;;70.75;47.75;;;;;0.95;93.48;101513.28;5087990;27;45386;-69
2024/01/14 10:29:22;;;;;;;;;62.75;46.25;;;;;0.95;94.73;101500.25;5086552;27;45506;-68
2024/01/14 10:31:50;;;;;;;;;63.00;48.00;;;;;0.93;94.54;101483.78;5084268;27;45345;-68
2024/01/14 10:34:17;;;;;;;;;63.25;50.00;;;;;1.02;94.43;101500.28;5083668;27;45636;-68
2024/01/14 10:36:42;;;;;;;;;57.75;44.75;;;;;1.01;93.94;101490.72;5088259;27;45330;-68
2024/01/14 10:39:10;;;;;;;;;57.75;42.25;;;;;1.08;95.39;101485.56;5087500;27;45450;-68
2024/01/14 10:41:36;;;;;;;;;65.00;45.75;;;;;1.22;93.93;101473.41;5086293;27;45728;-68
2024/01/14 10:44:02;;;;;;;;;62.25;45.75;;;;;1.07;93.81;101437.81;5088825;27;45437;-68
2024/01/14 10:46:32;;;;;;;;;64.00;47.75;;;;;1.41;93.35;101469.94;5086024;27;45434;-68
2024/01/14 10:49:06;;;;;;;;;63.00;47.25;;;;;1.42;91.95;101466.50;5086529;27;45323;-68
2024/01/14 10:51:36;;;;;;;;;65.25;46.00;;;;;1.52;91.57;101463.03;5088055;27;45435;-68
2024/01/14 10:54:13;;;;;;;;;58.50;45.75;;;;;1.58;92.19;101453.47;5087183;27;45410;-68
2024/01/14 10:56:46;;;;;;;;;67.50;44.75;;;;;1.64;90.66;101449.97;5087701;27;45392;-68
2024/01/14 10:59:13;;;;;;;;;58.00;43.00;;;;;1.65;89.29;101446.50;5087820;27;45511;-68
2024/01/14 11:01:48;;;;;;;;;60.00;45.25;;;;;1.52;90.41;101411.75;5086802;27;45290;-69
2024/01/14 11:04:15;;;;;;;;;71.50;50.00;;;;;1.77;89.24;101437.78;5088535;27;47440;-68
2024/01/14 11:06:42;;;;;;;;;72.50;49.00;;;;;1.83;89.18;101430.81;5093278;27;45697;-68